Time;durP1;ratioP1;P1;durP2;ratioP2;P2;SDS_P1;SDS_P2;PMS_P1;PMS_P2;Temp;Humidity;BMP_temperature;BMP_pressure;BME280_temperature;BME280_humidity;BME280_pressure;Samples;Min_cycle;Max_cycle;Signal;HPM_P1;HPM_P2
2023/04/03 00:01:18;;;;;;;1.58;1.00;;;;;;;18.98;50.19;97448.47;10321684;28;20043;-74
2023/04/03 00:06:37;;;;;;;0.95;0.88;;;;;;;18.96;50.22;97451.44;10321272;28;20050;-74
2023/04/03 00:11:57;;;;;;;1.70;1.00;;;;;;;18.96;50.22;97445.25;10334818;28;20071;-74
2023/04/03 00:17:16;;;;;;;2.40;1.10;;;;;;;18.95;50.19;97454.44;10334379;28;20045;-74
2023/04/03 00:22:35;;;;;;;1.35;1.00;;;;;;;18.94;50.04;97455.56;10320717;28;20049;-74
2023/04/03 00:27:55;;;;;;;1.65;0.90;;;;;;;18.93;50.12;97453.97;10327957;28;20054;-74
2023/04/03 00:33:15;;;;;;;1.45;0.90;;;;;;;18.92;50.18;97455.06;10333833;28;20411;-74
2023/04/03 00:38:34;;;;;;;1.02;0.80;;;;;;;18.92;50.13;97457.78;10319962;28;20050;-74
2023/04/03 00:43:54;;;;;;;3.90;1.00;;;;;;;18.90;50.25;97449.19;10333587;28;20487;-74
2023/04/03 00:49:13;;;;;;;0.95;0.75;;;;;;;18.89;50.12;97455.66;10333411;28;20054;-74
2023/04/03 00:54:35;;;;;;;1.85;0.93;;;;;;;18.89;49.93;97452.97;10347968;28;20046;-75
2023/04/03 00:59:57;;;;;;;0.88;0.80;;;;;;;18.87;50.01;97455.19;10332834;28;20046;-75
2023/04/03 01:05:18;;;;;;;1.05;0.70;;;;;;;18.86;50.07;97450.91;10319499;28;20462;-74
2023/04/03 01:10:38;;;;;;;1.00;0.80;;;;;;;18.86;49.98;97448.19;10347337;28;20046;-74
2023/04/03 01:16:02;;;;;;;1.05;0.80;;;;;;;18.84;49.92;97456.59;10318881;28;20053;-74
2023/04/03 01:21:53;;;;;;;0.93;0.80;;;;;;;18.83;49.96;97463.06;10332448;28;20529;-74
2023/04/03 01:27:12;;;;;;;1.00;0.80;;;;;;;18.83;49.79;97462.28;10328128;28;20058;-74
2023/04/03 01:32:32;;;;;;;0.82;0.82;;;;;;;18.81;50.08;97459.09;10318378;28;20038;-74
2023/04/03 01:37:52;;;;;;;0.65;0.65;;;;;;;18.80;49.93;97471.81;10332013;28;20046;-74
2023/04/03 01:43:11;;;;;;;0.70;0.70;;;;;;;18.79;50.00;97475.56;10331958;28;20054;-74
2023/04/03 01:48:31;;;;;;;0.80;0.80;;;;;;;18.78;49.65;97472.06;10346678;28;20047;-74
2023/04/03 01:53:51;;;;;;;1.10;0.80;;;;;;;18.78;49.78;97482.06;10331779;28;20483;-75
2023/04/03 01:59:11;;;;;;;1.08;0.88;;;;;;;18.76;49.88;97471.56;10346042;28;20097;-74
2023/04/03 02:04:31;;;;;;;0.85;0.77;;;;;;;18.76;49.86;97484.28;10331451;28;20034;-74
2023/04/03 02:09:51;;;;;;;1.05;0.70;;;;;;;18.75;49.80;97488.84;10318182;28;20050;-74
2023/04/03 02:15:11;;;;;;;0.77;0.70;;;;;;;18.73;49.73;97480.25;10325765;28;20046;-74
2023/04/03 02:20:30;;;;;;;1.10;0.80;;;;;;;18.73;49.84;97491.06;10338957;28;20043;-74
2023/04/03 02:25:50;;;;;;;0.80;0.80;;;;;;;18.72;49.81;97496.78;10325336;28;20046;-74
2023/04/03 02:31:10;;;;;;;0.88;0.63;;;;;;;18.71;49.73;97498.66;10353158;28;20046;-74
2023/04/03 02:36:32;;;;;;;1.00;0.80;;;;;;;18.70;49.80;97502.47;10324968;28;20042;-74
2023/04/03 02:41:54;;;;;;;0.90;0.68;;;;;;;18.69;49.66;97506.25;10325017;28;20047;-74
2023/04/03 02:47:17;;;;;;;0.63;0.63;;;;;;;18.68;49.78;97512.78;10338558;28;20054;-74
2023/04/03 02:52:37;;;;;;;1.35;0.80;;;;;;;18.68;49.76;97515.47;10324276;28;20077;-74
2023/04/03 02:57:56;;;;;;;0.95;0.80;;;;;;;18.67;49.52;97518.47;10337360;28;20050;-74
2023/04/03 03:03:16;;;;;;;0.80;0.70;;;;;;;18.66;49.60;97514.16;10323873;28;20046;-75
2023/04/03 03:08:36;;;;;;;0.70;0.70;;;;;;;18.64;49.65;97522.56;10337244;28;20069;-74
2023/04/03 03:13:55;;;;;;;0.60;0.60;;;;;;;18.64;49.47;97527.97;10337020;28;20053;-74
2023/04/03 03:19:17;;;;;;;1.42;0.80;;;;;;;18.63;49.62;97534.44;10323576;28;20050;-74
2023/04/03 03:24:37;;;;;;;0.82;0.70;;;;;;;18.62;49.56;97538.25;10335223;28;20046;-74
2023/04/03 03:29:56;;;;;;;0.60;0.60;;;;;;;18.61;49.58;97533.16;10339661;28;20058;-74
2023/04/03 03:35:15;;;;;;;0.75;0.70;;;;;;;18.59;49.36;97538.84;10335896;28;20101;-74
2023/04/03 03:40:35;;;;;;;0.70;0.70;;;;;;;18.58;49.37;97542.63;10322837;28;20049;-74
2023/04/03 03:45:55;;;;;;;0.80;0.60;;;;;;;18.57;49.43;97536.44;10335581;28;20407;-74
2023/04/03 03:51:17;;;;;;;0.70;0.70;;;;;;;18.56;49.41;97547.53;10309047;28;20042;-74
2023/04/03 03:56:36;;;;;;;0.93;0.63;;;;;;;18.56;49.22;97550.22;10321775;28;20052;-74
2023/04/03 04:01:56;;;;;;;0.60;0.52;;;;;;;18.54;49.20;97564.03;10335201;28;20057;-74
2023/04/03 04:07:16;;;;;;;0.70;0.70;;;;;;;18.53;49.21;97561.63;10335547;28;20050;-74
2023/04/03 04:12:36;;;;;;;1.05;0.70;;;;;;;18.51;48.93;97559.22;10334826;28;20050;-74
2023/04/03 04:17:57;;;;;;;0.85;0.70;;;;;;;18.52;49.28;97560.03;10320795;28;20046;-74
2023/04/03 04:23:17;;;;;;;0.82;0.70;;;;;;;18.51;49.23;97566.53;10348953;28;20046;-74
2023/04/03 04:28:37;;;;;;;0.75;0.70;;;;;;;18.51;49.18;97569.22;10306959;28;20069;-74
2023/04/03 04:33:58;;;;;;;0.75;0.70;;;;;;;18.51;49.20;97569.22;10320155;28;20046;-74
2023/04/03 04:39:18;;;;;;;0.68;0.60;;;;;;;18.51;48.99;97575.41;10320381;28;20454;-75
2023/04/03 04:44:39;;;;;;;0.88;0.70;;;;;;;18.52;49.26;97577.03;10320133;28;20561;-74
2023/04/03 04:49:59;;;;;;;1.05;0.88;;;;;;;18.54;49.42;97582.09;10333207;28;20053;-75
2023/04/03 04:55:19;;;;;;;1.27;0.70;;;;;;;18.55;49.28;97595.31;10333286;28;20068;-73
2023/04/03 05:00:39;;;;;;;1.55;0.43;;;;;;;18.56;49.69;97594.22;10332903;28;20446;-74
2023/04/03 05:05:59;;;;;;;1.88;1.20;;;;;;;18.58;49.49;97581.22;10319281;28;20061;-74
2023/04/03 05:11:20;;;;;;;1.92;1.25;;;;;;;18.60;49.62;97586.31;10318917;28;20050;-73
2023/04/03 05:16:42;;;;;;;2.03;1.20;;;;;;;18.63;49.57;97601.13;10332312;28;20049;-74
2023/04/03 05:22:02;;;;;;;6.47;2.50;;;;;;;18.66;49.39;97611.31;10332241;28;20039;-74
2023/04/03 05:27:27;;;;;;;3.67;2.08;;;;;;;18.69;49.16;97614.22;10305046;28;20066;-74
2023/04/03 05:32:48;;;;;;;4.53;2.10;;;;;;;18.74;49.18;97621.44;10318981;28;20043;-73
2023/04/03 05:38:23;;;;;;;6.38;2.53;;;;;;;18.77;48.85;97615.41;10320293;28;20068;-74
2023/04/03 05:43:44;;;;;;;4.90;2.17;;;;;;;18.79;48.91;97624.03;10305595;28;20061;-74
2023/04/03 05:49:04;;;;;;;5.93;2.75;;;;;;;18.84;48.88;97623.97;10325898;28;20407;-73
2023/04/03 05:54:28;;;;;;;4.80;2.38;;;;;;;18.87;48.75;97631.44;10326696;28;20475;-74
2023/04/03 06:00:03;;;;;;;5.13;2.30;;;;;;;18.92;48.63;97650.25;10327910;28;20038;-74
2023/04/03 06:05:23;;;;;;;5.30;2.30;;;;;;;18.95;48.73;97638.06;10339723;28;20043;-74
2023/04/03 06:10:43;;;;;;;5.18;2.45;;;;;;;18.99;48.61;97644.44;10312422;28;20401;-74
2023/04/03 06:16:04;;;;;;;4.68;2.30;;;;;;;19.02;48.31;97654.66;10325607;28;20046;-74
2023/04/03 06:21:26;;;;;;;5.55;2.60;;;;;;;19.05;48.44;97658.66;10338965;28;20136;-80
2023/04/03 06:26:46;;;;;;;4.30;2.33;;;;;;;19.08;48.43;97660.78;10311891;28;20062;-81
2023/04/03 06:32:05;;;;;;;4.03;2.28;;;;;;;19.11;48.33;97660.97;10338696;28;20073;-81
2023/04/03 06:37:25;;;;;;;5.13;2.50;;;;;;;19.16;48.34;97657.38;10338310;28;20546;-81
2023/04/03 06:42:46;;;;;;;5.25;2.20;;;;;;;19.19;48.33;97669.47;10338318;28;20049;-81
2023/04/03 06:48:06;;;;;;;4.95;2.10;;;;;;;19.23;48.29;97665.06;10324504;28;20053;-81
2023/04/03 06:53:26;;;;;;;5.18;2.17;;;;;;;19.27;48.11;97663.38;10324215;28;20043;-81
2023/04/03 06:58:46;;;;;;;4.82;2.28;;;;;;;19.30;48.10;97673.56;10337262;28;20442;-81
2023/04/03 07:04:05;;;;;;;4.18;2.08;;;;;;;19.34;47.91;97686.16;10323848;28;20051;-81
2023/04/03 07:09:26;;;;;;;5.55;1.85;;;;;;;19.36;48.01;97686.66;10337315;28;20112;-81
2023/04/03 07:14:45;;;;;;;5.40;2.63;;;;;;;19.41;47.94;97682.28;10351641;28;20046;-81
2023/04/03 07:20:05;;;;;;;4.72;2.30;;;;;;;19.44;47.95;97690.56;10337402;28;20042;-81
2023/04/03 07:25:26;;;;;;;4.68;2.00;;;;;;;19.46;47.92;97696.47;10323196;28;20035;-81
2023/04/03 07:30:51;;;;;;;4.57;2.17;;;;;;;19.52;48.14;97700.69;10322967;28;20039;-81
2023/04/03 07:36:14;;;;;;;2.50;1.63;;;;;;;19.54;48.15;97700.38;10322540;28;20450;-81
2023/04/03 07:41:34;;;;;;;4.20;2.00;;;;;;;19.58;48.20;97704.06;10295301;28;20430;-81
2023/04/03 07:46:55;;;;;;;4.05;2.15;;;;;;;19.63;48.09;97698.56;10322303;28;20042;-73
2023/04/03 07:52:15;;;;;;;9.30;2.40;;;;;;;19.63;47.98;97695.06;10306732;28;20454;-73
2023/04/03 07:57:35;;;;;;;5.15;1.90;;;;;;;19.66;48.38;97706.09;10335191;28;20046;-74
2023/04/03 08:02:54;;;;;;;4.80;2.00;;;;;;;19.69;48.47;97707.38;10335123;28;20046;-74
2023/04/03 08:08:21;;;;;;;3.70;2.03;;;;;;;19.72;48.37;97698.69;10348609;28;20085;-74
2023/04/03 08:13:41;;;;;;;3.30;1.92;;;;;;;19.76;48.33;97705.09;10335022;28;20042;-74
2023/04/03 08:19:01;;;;;;;3.00;1.88;;;;;;;19.79;48.45;97704.47;10334683;28;20122;-73
2023/04/03 08:24:21;;;;;;;3.00;2.00;;;;;;;19.86;48.21;97702.16;10334640;28;20097;-73
2023/04/03 08:29:41;;;;;;;2.55;1.75;;;;;;;19.93;48.33;97709.84;10309595;28;20058;-74
2023/04/03 08:35:00;;;;;;;3.92;2.00;;;;;;;19.93;48.45;97716.06;10333854;28;20042;-74
2023/04/03 08:40:20;;;;;;;3.33;1.83;;;;;;;19.95;48.61;97723.88;10333855;28;20089;-74
2023/04/03 08:45:50;;;;;;;3.65;1.80;;;;;;;19.96;48.53;97714.66;10348698;28;20506;-73
2023/04/03 08:51:15;;;;;;;4.93;1.70;;;;;;;20.00;48.57;97725.69;10319782;28;20049;-74
2023/04/03 08:56:35;;;;;;;2.60;1.63;;;;;;;20.03;48.47;97725.06;10332912;28;20042;-74
2023/04/03 09:01:56;;;;;;;2.72;1.38;;;;;;;20.07;48.52;97726.03;10332786;28;20042;-74
2023/04/03 09:07:42;;;;;;;3.15;1.42;;;;;;;20.09;48.31;97735.47;10333023;28;20122;-74
2023/04/03 09:13:26;;;;;;;4.32;1.60;;;;;;;20.10;48.11;97734.34;10319111;28;20054;-74
2023/04/03 09:18:49;;;;;;;2.63;1.55;;;;;;;20.13;48.27;97746.47;10332346;28;20049;-74
2023/04/03 09:24:13;;;;;;;2.25;1.50;;;;;;;20.19;48.35;97752.56;10332116;28;20038;-74
2023/04/03 09:29:36;;;;;;;2.42;1.25;;;;;;;20.21;48.08;97753.88;10308224;28;20415;-74
2023/04/03 09:35:18;;;;;;;3.40;1.42;;;;;;;20.25;48.16;97745.94;10318736;28;20046;-74
2023/04/03 09:40:40;;;;;;;3.53;1.52;;;;;;;20.26;48.13;97748.31;10346572;28;20487;-74
2023/04/03 09:46:18;;;;;;;4.00;1.30;;;;;;;20.30;48.00;97748.53;10319233;28;20042;-74
2023/04/03 09:51:37;;;;;;;4.13;1.70;;;;;;;20.31;47.98;97750.13;10304557;28;20522;-74
2023/04/03 09:57:02;;;;;;;3.65;1.55;;;;;;;20.31;48.03;97742.81;10331610;28;20047;-74
2023/04/03 10:02:34;;;;;;;3.00;1.40;;;;;;;20.32;47.86;97738.97;10331618;28;20043;-73
2023/04/03 10:08:12;;;;;;;2.90;1.52;;;;;;;20.34;47.98;97736.78;10317796;28;20050;-74
2023/04/03 10:13:32;;;;;;;3.17;1.70;;;;;;;20.37;47.96;97740.78;10317861;28;20101;-75
2023/04/03 10:18:56;;;;;;;3.38;1.38;;;;;;;20.37;47.70;97740.00;10345895;28;20043;-74
2023/04/03 10:24:35;;;;;;;4.95;1.50;;;;;;;20.39;47.93;97735.06;10317904;28;20050;-75
2023/04/03 10:30:04;;;;;;;6.60;1.50;;;;;;;20.39;47.90;97738.56;10334334;28;20058;-74
2023/04/03 10:35:42;;;;;;;2.42;1.20;;;;;;;20.41;47.95;97730.16;10325022;28;20510;-74
2023/04/03 10:41:07;;;;;;;2.10;1.17;;;;;;;20.42;47.91;97729.03;10338537;28;20049;-74
2023/04/03 10:46:39;;;;;;;3.20;1.42;;;;;;;20.42;47.92;97726.31;10338328;28;20096;-74
2023/04/03 10:52:16;;;;;;;1.85;1.23;;;;;;;20.40;46.53;97721.22;10352838;28;20042;-74
2023/04/03 10:57:36;;;;;;;2.00;1.33;;;;;;;20.42;46.75;97724.41;10352681;28;20046;-73
2023/04/03 11:03:03;;;;;;;1.85;1.15;;;;;;;20.44;46.68;97726.81;10337623;28;20049;-73
2023/04/03 11:08:49;;;;;;;3.13;1.35;;;;;;;20.43;46.75;97711.69;10323897;28;20431;-73
2023/04/03 11:14:23;;;;;;;2.50;1.20;;;;;;;20.43;46.62;97719.81;10316548;28;20077;-73
2023/04/03 11:19:58;;;;;;;2.53;1.35;;;;;;;20.43;46.70;97712.50;10351526;28;20384;-73
2023/04/03 11:25:22;;;;;;;2.65;1.10;;;;;;;20.44;46.46;97707.88;10336833;28;20051;-74
2023/04/03 11:31:20;;;;;;;1.95;1.23;;;;;;;20.44;46.69;97705.16;10336751;28;20038;-74
2023/04/03 11:36:44;;;;;;;3.27;1.20;;;;;;;20.44;46.66;97702.47;10336164;28;20042;-74
2023/04/03 11:42:19;;;;;;;2.53;1.00;;;;;;;20.42;46.75;97702.75;10322209;28;20492;-73
2023/04/03 11:47:48;;;;;;;2.65;1.10;;;;;;;20.42;46.35;97702.75;10350785;28;20116;-74
2023/04/03 11:53:28;;;;;;;1.65;1.10;;;;;;;19.73;29.18;97698.38;10335830;28;20049;-73
2023/04/03 11:59:18;;;;;;;4.63;1.40;;;;;;;19.06;25.56;97698.88;10336834;28;20097;-73
2023/04/03 12:04:37;;;;;;;2.47;1.13;;;;;;;19.12;28.25;97689.56;10350200;28;20053;-73
2023/04/03 12:09:58;;;;;;;2.35;1.00;;;;;;;19.53;34.15;97690.69;10334850;28;20530;-73
2023/04/03 12:15:41;;;;;;;2.30;1.10;;;;;;;19.75;33.99;97682.66;10334801;28;20046;-72
2023/04/03 12:21:01;;;;;;;2.65;1.30;;;;;;;19.87;34.59;97674.00;10349112;28;20407;-72
2023/04/03 12:26:25;;;;;;;2.40;0.90;;;;;;;19.93;35.31;97672.81;10332448;28;20495;-72
2023/04/03 12:31:56;;;;;;;2.38;1.20;;;;;;;20.00;35.15;97671.59;10348714;28;20069;-73
2023/04/03 12:37:35;;;;;;;3.85;1.33;;;;;;;20.03;36.04;97665.53;10348572;28;20047;-73
2023/04/03 12:43:01;;;;;;;2.60;1.35;;;;;;;20.07;36.80;97661.13;10348310;28;20050;-73
2023/04/03 12:48:25;;;;;;;4.55;1.42;;;;;;;20.08;37.28;97660.03;10348055;28;20047;-72
2023/04/03 12:53:45;;;;;;;2.08;1.02;;;;;;;20.10;37.52;97665.94;10319448;28;20042;-73
2023/04/03 12:59:23;;;;;;;2.10;1.10;;;;;;;20.13;37.94;97662.59;10333017;28;20407;-73
2023/04/03 13:04:44;;;;;;;1.70;1.20;;;;;;;20.14;38.36;97667.69;10319127;28;20042;-73
2023/04/03 13:10:07;;;;;;;1.17;1.08;;;;;;;20.18;38.86;97673.31;10319151;28;20049;-72
2023/04/03 13:15:29;;;;;;;1.85;1.17;;;;;;;20.19;39.11;97666.81;10347313;28;20116;-73
2023/04/03 13:20:50;;;;;;;1.60;1.08;;;;;;;20.22;39.36;97673.50;10332425;28;20046;-72
2023/04/03 13:26:09;;;;;;;1.92;1.10;;;;;;;20.22;39.63;97663.47;10330917;28;20518;-73
2023/04/03 13:31:37;;;;;;;2.10;1.20;;;;;;;20.25;40.16;97657.47;10332097;28;20042;-72
2023/04/03 13:37:00;;;;;;;1.67;1.00;;;;;;;20.27;40.32;97665.28;10318458;28;20054;-72
2023/04/03 13:42:29;;;;;;;1.83;0.98;;;;;;;20.30;40.62;97664.63;10332117;28;20109;-72
2023/04/03 13:47:50;;;;;;;3.65;1.20;;;;;;;20.31;41.03;97656.22;10332146;28;20448;-72
2023/04/03 13:53:12;;;;;;;3.22;1.00;;;;;;;20.24;39.55;97655.06;10331733;28;20046;-73
2023/04/03 13:58:33;;;;;;;3.80;1.00;;;;;;;20.29;40.75;97646.81;10331621;28;20046;-74
2023/04/03 14:03:57;;;;;;;5.85;1.10;;;;;;;20.30;40.74;97643.00;10331974;28;20042;-76
2023/04/03 14:09:18;;;;;;;3.55;1.10;;;;;;;20.33;41.28;97640.47;10338173;28;20057;-72
2023/04/03 14:14:38;;;;;;;4.75;1.10;;;;;;;20.36;41.73;97644.47;10339208;28;20061;-72
2023/04/03 14:19:58;;;;;;;2.35;1.17;;;;;;;20.35;42.68;97640.97;10325761;28;20434;-72
2023/04/03 14:25:19;;;;;;;3.97;1.10;;;;;;;20.35;42.86;97640.97;10339435;28;20112;-72
2023/04/03 14:30:38;;;;;;;2.60;0.98;;;;;;;20.35;43.01;97640.97;10323060;28;20054;-72
2023/04/03 14:35:58;;;;;;;1.63;1.02;;;;;;;20.34;42.99;97644.75;10323081;28;20054;-72
2023/04/03 14:41:22;;;;;;;1.73;0.70;;;;;;;20.34;43.47;97650.19;10336004;28;20051;-72
2023/04/03 14:46:42;;;;;;;1.88;1.05;;;;;;;20.36;43.60;97641.75;10309222;28;20514;-73
2023/04/03 14:52:02;;;;;;;1.35;0.90;;;;;;;20.38;43.73;97644.16;10350123;28;20038;-73
2023/04/03 14:57:26;;;;;;;4.45;0.93;;;;;;;20.37;43.89;97653.41;10349854;28;20042;-73
2023/04/03 15:02:47;;;;;;;1.13;0.80;;;;;;;20.36;44.15;97652.56;10321673;28;20092;-72
2023/04/03 15:08:23;;;;;;;2.20;0.90;;;;;;;20.40;43.90;97650.84;10321710;28;20042;-72
2023/04/03 15:13:44;;;;;;;2.00;0.80;;;;;;;20.43;44.10;97652.16;10349386;28;20042;-72
2023/04/03 15:19:03;;;;;;;3.80;0.80;;;;;;;20.43;44.34;97654.88;10334269;28;20053;-72
2023/04/03 15:24:22;;;;;;;1.33;0.98;;;;;;;20.44;44.39;97667.28;10334636;28;20042;-72
2023/04/03 15:29:44;;;;;;;6.97;1.13;;;;;;;20.44;44.51;97661.88;10254292;28;1289188;-72
2023/04/03 15:35:05;;;;;;;1.95;0.88;;;;;;;20.44;44.64;97669.97;10296298;28;20046;-72
2023/04/03 15:40:25;;;;;;;4.65;1.00;;;;;;;20.43;44.81;97665.69;10282594;28;20043;-72
2023/04/03 15:45:45;;;;;;;2.42;1.02;;;;;;;20.39;45.38;97679.03;10310828;28;20506;-72
2023/04/03 15:51:06;;;;;;;2.47;0.77;;;;;;;20.39;45.64;97672.84;10309302;28;20047;-73
2023/04/03 15:56:25;;;;;;;6.22;1.05;;;;;;;20.37;45.71;97673.13;10308929;28;20042;-72
2023/04/03 16:01:45;;;;;;;11.20;0.90;;;;;;;20.36;46.00;97674.22;10281531;28;20046;-73
2023/04/03 16:07:04;;;;;;;5.03;0.90;;;;;;;20.35;46.13;97676.13;10309383;28;20487;-73
2023/04/03 16:12:24;;;;;;;4.28;0.93;;;;;;;20.40;46.95;97679.81;10308342;28;20047;-73
2023/04/03 16:17:44;;;;;;;7.10;1.15;;;;;;;20.39;47.05;97678.25;10309143;28;20090;-72
2023/04/03 16:23:04;;;;;;;6.32;1.15;;;;;;;20.37;47.23;97686.66;10307835;28;20093;-71
2023/04/03 16:28:24;;;;;;;3.63;0.80;;;;;;;20.36;47.09;97690.47;10322550;28;20507;-74
2023/04/03 16:33:43;;;;;;;2.63;0.80;;;;;;;20.35;46.89;97699.72;10320644;28;20042;-72
2023/04/03 16:39:04;;;;;;;2.08;0.80;;;;;;;20.34;46.88;97692.69;10333553;28;20077;-73
2023/04/03 16:44:23;;;;;;;3.03;0.80;;;;;;;20.34;47.04;97692.69;10333713;28;20557;-73
2023/04/03 16:49:42;;;;;;;1.55;0.80;;;;;;;20.35;47.27;97697.78;10333523;28;20050;-73
2023/04/03 16:55:02;;;;;;;2.42;0.80;;;;;;;20.34;47.26;97698.09;10347911;28;20100;-73
2023/04/03 17:00:22;;;;;;;1.30;0.75;;;;;;;20.12;40.03;97693.47;10319472;28;20061;-74
2023/04/03 17:05:43;;;;;;;5.13;1.00;;;;;;;20.19;44.69;97693.84;10319532;28;20046;-74
2023/04/03 17:11:03;;;;;;;3.03;0.85;;;;;;;20.20;44.96;97692.75;10319200;28;20038;-73
2023/04/03 17:16:23;;;;;;;3.55;0.90;;;;;;;20.21;44.92;97701.66;10347100;28;20042;-71
2023/04/03 17:21:45;;;;;;;1.83;0.80;;;;;;;20.21;45.26;97696.22;10332611;28;20046;-73
2023/04/03 17:27:04;;;;;;;12.85;0.95;;;;;;;20.19;45.45;97701.16;10311730;28;20066;-74
2023/04/03 17:32:25;;;;;;;5.85;1.25;;;;;;;20.19;45.56;97704.69;10318742;28;20046;-73
2023/04/03 17:37:44;;;;;;;3.30;1.10;;;;;;;20.21;45.79;97704.34;10346710;28;20053;-74
2023/04/03 17:43:04;;;;;;;2.90;0.77;;;;;;;20.20;45.56;97702.75;10318010;28;20054;-73
2023/04/03 17:48:25;;;;;;;1.27;0.75;;;;;;;20.18;45.94;97704.97;10332087;28;20447;-74
2023/04/03 17:53:46;;;;;;;2.78;0.80;;;;;;;20.15;45.69;97701.78;10331960;28;20043;-72
2023/04/03 17:59:06;;;;;;;1.65;0.60;;;;;;;20.12;46.10;97696.97;10331506;28;20050;-72
2023/04/03 18:04:29;;;;;;;1.48;0.80;;;;;;;20.14;46.17;97707.50;10345963;28;20049;-72
2023/04/03 18:09:50;;;;;;;3.05;0.70;;;;;;;20.13;46.09;97705.88;10318189;28;20118;-73
2023/04/03 18:15:10;;;;;;;1.00;0.70;;;;;;;20.11;46.17;97710.78;10331245;28;20042;-73
2023/04/03 18:20:30;;;;;;;1.70;0.90;;;;;;;20.11;46.44;97721.63;10317535;28;20476;-73
2023/04/03 18:25:49;;;;;;;1.20;0.80;;;;;;;20.10;46.32;97718.13;10345278;28;20046;-74
2023/04/03 18:31:09;;;;;;;2.10;0.90;;;;;;;20.07;46.66;97716.03;10317450;28;20045;-73
2023/04/03 18:36:29;;;;;;;3.88;1.00;;;;;;;20.06;46.90;97725.25;10317400;28;20043;-74
2023/04/03 18:41:48;;;;;;;4.28;1.10;;;;;;;20.05;47.38;97723.66;10304029;28;20049;-73
2023/04/03 18:47:08;;;;;;;3.38;1.05;;;;;;;20.05;47.39;97729.06;10345523;28;20046;-73
2023/04/03 18:52:28;;;;;;;4.97;1.27;;;;;;;20.04;47.77;97721.25;10319117;28;20050;-73
2023/04/03 18:57:48;;;;;;;4.00;1.13;;;;;;;20.05;47.83;97729.06;10324099;28;20041;-72
2023/04/03 19:03:09;;;;;;;3.55;1.10;;;;;;;20.03;48.00;97731.28;10310417;28;20069;-74
2023/04/03 19:08:29;;;;;;;3.80;1.30;;;;;;;20.03;48.13;97728.56;10337550;28;20050;-73
2023/04/03 19:13:49;;;;;;;1.80;0.80;;;;;;;20.02;48.10;97728.88;10352120;28;20054;-73
2023/04/03 19:19:08;;;;;;;2.15;1.00;;;;;;;20.00;48.09;97728.38;10323407;28;20082;-73
2023/04/03 19:24:27;;;;;;;2.55;0.90;;;;;;;19.99;48.12;97727.56;10336936;28;20057;-73
2023/04/03 19:29:50;;;;;;;1.92;0.98;;;;;;;19.97;47.98;97735.19;10340681;28;20054;-72
2023/04/03 19:35:10;;;;;;;2.03;0.95;;;;;;;19.95;48.05;97735.50;10336628;28;20446;-73
2023/04/03 19:40:31;;;;;;;3.15;1.10;;;;;;;19.95;48.65;97743.63;10322611;28;20039;-74
2023/04/03 19:45:51;;;;;;;3.20;1.20;;;;;;;19.97;48.70;97747.91;10322569;28;20483;-73
2023/04/03 19:51:10;;;;;;;2.65;1.02;;;;;;;19.96;48.65;97741.69;10335801;28;20041;-74
2023/04/03 19:56:30;;;;;;;3.70;1.08;;;;;;;19.96;48.54;97747.13;10350126;28;20406;-73
2023/04/03 20:01:50;;;;;;;1.80;0.80;;;;;;;19.92;47.69;97741.50;10321815;28;20050;-74
2023/04/03 20:07:09;;;;;;;2.80;1.20;;;;;;;19.93;48.37;97743.13;10320568;28;20058;-74
2023/04/03 20:12:29;;;;;;;2.60;1.10;;;;;;;19.91;48.34;97739.91;10334905;28;20487;-74
2023/04/03 20:17:49;;;;;;;3.22;1.20;;;;;;;19.90;48.76;97738.31;10334635;28;20042;-73
2023/04/03 20:23:10;;;;;;;4.32;1.17;;;;;;;19.88;48.78;97734.31;10334527;28;20403;-74
2023/04/03 20:28:31;;;;;;;3.63;1.35;;;;;;;19.86;48.76;97731.91;10312996;28;20491;-73
2023/04/03 20:33:50;;;;;;;3.15;1.42;;;;;;;19.86;48.78;97731.13;10320413;28;20458;-74
2023/04/03 20:39:09;;;;;;;2.30;1.20;;;;;;;19.85;48.90;97732.22;10334487;28;20046;-74
2023/04/03 20:44:29;;;;;;;6.25;1.50;;;;;;;19.84;48.96;97739.53;10348382;28;20169;-74
2023/04/03 20:49:51;;;;;;;5.50;1.60;;;;;;;19.84;48.81;97728.72;10333588;28;20097;-74
2023/04/03 20:55:11;;;;;;;4.13;1.73;;;;;;;19.83;48.87;97729.78;10333251;28;20052;-73
2023/04/03 21:00:33;;;;;;;4.20;1.48;;;;;;;19.82;49.06;97730.91;10333178;28;20487;-74
2023/04/03 21:05:59;;;;;;;3.50;1.70;;;;;;;19.81;49.18;97734.72;10319645;28;20072;-74
2023/04/03 21:11:56;;;;;;;4.45;1.75;;;;;;;19.79;49.30;97726.09;10332747;28;20057;-74
2023/04/03 21:17:16;;;;;;;4.60;1.80;;;;;;;19.77;49.24;97728.31;10347023;28;20042;-74
2023/04/03 21:22:41;;;;;;;4.05;1.50;;;;;;;19.77;49.40;97725.59;10347297;28;20050;-74
2023/04/03 21:28:03;;;;;;;3.97;1.52;;;;;;;19.77;49.46;97733.72;10312334;28;20058;-73
2023/04/03 21:33:22;;;;;;;3.45;1.10;;;;;;;19.77;49.21;97732.94;10319121;28;20039;-73
2023/04/03 21:38:46;;;;;;;3.30;1.60;;;;;;;19.75;49.21;97725.09;10332187;28;20045;-73
2023/04/03 21:44:06;;;;;;;2.40;1.30;;;;;;;19.75;49.40;97733.22;10318981;28;20042;-73
2023/04/03 21:49:25;;;;;;;2.40;1.02;;;;;;;19.72;49.21;97728.44;10318087;28;20046;-73
2023/04/03 21:54:46;;;;;;;3.15;1.30;;;;;;;19.71;49.10;97730.31;10331702;28;20043;-73
2023/04/03 22:00:09;;;;;;;1.80;1.23;;;;;;;19.69;48.99;97737.91;10318049;28;20101;-73
2023/04/03 22:05:30;;;;;;;2.08;1.30;;;;;;;19.69;48.89;97742.50;10332260;28;20047;-73
2023/04/03 22:10:51;;;;;;;2.25;1.20;;;;;;;19.67;48.72;97740.09;10331556;28;20050;-73
2023/04/03 22:16:11;;;;;;;3.08;1.45;;;;;;;19.67;48.69;97733.91;10346039;28;20483;-73
2023/04/03 22:21:32;;;;;;;3.20;1.38;;;;;;;19.66;48.72;97725.00;10317633;28;20051;-73
2023/04/03 22:26:52;;;;;;;2.63;1.08;;;;;;;19.65;48.59;97728.00;10314738;28;20504;-76
2023/04/03 22:32:12;;;;;;;2.25;1.30;;;;;;;19.63;48.40;97727.50;10325387;28;20097;-73
2023/04/03 22:37:31;;;;;;;2.25;1.27;;;;;;;19.62;48.44;97720.47;10338814;28;20038;-73
2023/04/03 22:42:51;;;;;;;1.90;1.10;;;;;;;19.60;48.37;97723.50;10353703;28;20087;-73
2023/04/03 22:48:11;;;;;;;2.92;1.30;;;;;;;19.60;48.23;97728.09;10338332;28;20388;-72
2023/04/03 22:53:30;;;;;;;2.97;1.10;;;;;;;19.59;48.16;97721.09;10352974;28;20048;-72
2023/04/03 22:58:50;;;;;;;2.13;1.17;;;;;;;19.56;48.29;97715.19;10352400;28;20046;-72
2023/04/03 23:04:09;;;;;;;3.05;1.23;;;;;;;19.56;48.04;97707.09;10323997;28;20487;-73
2023/04/03 23:09:29;;;;;;;2.55;1.30;;;;;;;19.55;48.00;97705.47;10351999;28;20122;-73
2023/04/03 23:14:48;;;;;;;1.55;1.10;;;;;;;19.54;48.22;97703.06;10337205;28;20062;-72
2023/04/03 23:20:08;;;;;;;2.55;1.10;;;;;;;19.52;47.83;97700.69;10351645;28;20042;-73
2023/04/03 23:25:28;;;;;;;1.90;1.10;;;;;;;19.52;47.83;97691.75;10323234;28;20105;-73
2023/04/03 23:30:48;;;;;;;2.30;1.10;;;;;;;19.50;47.70;97692.09;10336497;28;20569;-73
2023/04/03 23:36:07;;;;;;;2.50;1.13;;;;;;;19.49;47.74;97692.38;10322892;28;20045;-72
2023/04/03 23:41:27;;;;;;;1.85;1.10;;;;;;;19.48;47.54;97683.47;10322572;28;20094;-73
2023/04/03 23:46:46;;;;;;;1.90;1.10;;;;;;;19.46;47.66;97680.25;10335986;28;20077;-73
2023/04/03 23:52:06;;;;;;;1.80;1.20;;;;;;;19.46;47.70;97685.66;10322127;28;20065;-73
2023/04/03 23:57:26;;;;;;;1.83;1.00;;;;;;;19.44;47.52;97674.34;10335678;28;20046;-73
